createdAt,value
2023-02-12T00:00:53.964Z,7.25
2023-02-12T00:01:53.955Z,7.22
2023-02-12T00:02:53.938Z,7.18
2023-02-12T00:03:54.061Z,7.22
2023-02-12T00:04:53.960Z,7.25
2023-02-12T00:05:54.292Z,7.18
2023-02-12T00:06:53.891Z,7.10
2023-02-12T00:07:53.910Z,7.15
2023-02-12T00:08:53.908Z,7.16
2023-02-12T00:09:53.865Z,7.06
2023-02-12T00:10:53.847Z,7.08
2023-02-12T00:11:53.842Z,7.07
2023-02-12T00:12:53.838Z,7.15
2023-02-12T00:13:53.821Z,7.25
2023-02-12T00:14:53.811Z,7.24
2023-02-12T00:15:54.447Z,7.16
2023-02-12T00:16:53.794Z,7.18
2023-02-12T00:17:53.776Z,7.11
2023-02-12T00:18:53.765Z,7.10
2023-02-12T00:19:53.766Z,7.08
2023-02-12T00:20:53.740Z,7.07
2023-02-12T00:21:53.721Z,6.99
2023-02-12T00:22:53.728Z,6.99
2023-02-12T00:23:53.721Z,7.10
2023-02-12T00:24:53.718Z,7.08
2023-02-12T00:25:54.080Z,7.08
2023-02-12T00:26:53.680Z,7.10
2023-02-12T00:27:53.662Z,7.01
2023-02-12T00:28:53.658Z,7.10
2023-02-12T00:29:53.657Z,7.15
2023-02-12T00:30:53.774Z,7.04
2023-02-12T00:31:53.684Z,7.13
2023-02-12T00:32:53.605Z,7.03
2023-02-12T00:33:53.593Z,7.10
2023-02-12T00:34:53.595Z,7.01
2023-02-12T00:35:53.906Z,7.00
2023-02-12T00:36:53.580Z,7.01
2023-02-12T00:37:53.552Z,6.99
2023-02-12T00:38:53.539Z,7.03
2023-02-12T00:39:53.544Z,7.15
2023-02-12T00:40:53.542Z,6.97
2023-02-12T00:41:53.541Z,7.06
2023-02-12T00:42:53.510Z,7.01
2023-02-12T00:43:53.509Z,7.01
2023-02-12T00:44:53.540Z,7.00
2023-02-12T00:45:53.893Z,6.99
2023-02-12T00:46:53.461Z,7.04
2023-02-12T00:47:53.456Z,7.00
2023-02-12T00:48:53.436Z,7.11
2023-02-12T00:49:53.436Z,7.10
2023-02-12T00:50:53.422Z,7.01
2023-02-12T00:51:53.401Z,7.11
2023-02-12T00:52:53.399Z,7.16
2023-02-12T00:53:53.398Z,7.10
2023-02-12T00:54:53.398Z,7.15
2023-02-12T00:55:53.885Z,7.08
2023-02-12T00:56:53.377Z,7.04
2023-02-12T00:57:53.355Z,7.10
2023-02-12T00:58:53.329Z,7.11
2023-02-12T00:59:53.313Z,7.13
2023-02-12T01:00:53.344Z,7.04
2023-02-12T01:01:53.347Z,7.00
2023-02-12T01:02:53.283Z,7.03
2023-02-12T01:03:53.277Z,6.97
2023-02-12T01:04:53.289Z,6.96
2023-02-12T01:05:53.679Z,6.91
2023-02-12T01:06:53.263Z,6.82
2023-02-12T01:07:53.236Z,6.83
2023-02-12T01:08:53.229Z,6.83
2023-02-12T01:09:53.232Z,6.82
2023-02-12T01:10:53.204Z,6.81
2023-02-12T01:11:53.188Z,6.82
2023-02-12T01:12:53.248Z,6.83
2023-02-12T01:13:53.172Z,6.92
2023-02-12T01:14:53.155Z,6.85
2023-02-12T01:15:53.647Z,6.75
2023-02-12T01:16:53.148Z,6.79
2023-02-12T01:17:53.155Z,6.75
2023-02-12T01:18:55.693Z,6.70
2023-02-12T01:19:53.115Z,6.63
2023-02-12T01:20:53.100Z,6.71
2023-02-12T01:21:53.081Z,6.57
2023-02-12T01:22:53.082Z,6.61
2023-02-12T01:23:53.069Z,6.53
2023-02-12T01:24:53.059Z,6.57
2023-02-12T01:25:53.299Z,6.47
2023-02-12T01:26:53.041Z,6.50
2023-02-12T01:27:53.028Z,6.43
2023-02-12T01:28:53.131Z,6.46
2023-02-12T01:29:53.009Z,6.47
2023-02-12T01:30:53.046Z,6.37
2023-02-12T01:31:53.091Z,6.42
2023-02-12T01:32:52.967Z,6.38
2023-02-12T01:33:52.964Z,6.46
2023-02-12T01:34:52.945Z,6.42
2023-02-12T01:35:53.368Z,6.46
2023-02-12T01:36:52.950Z,6.46
2023-02-12T01:37:52.924Z,6.45
2023-02-12T01:38:52.910Z,6.55
2023-02-12T01:39:52.899Z,6.55
2023-02-12T01:40:52.896Z,6.43
2023-02-12T01:41:52.890Z,6.47
2023-02-12T01:42:52.859Z,6.42
2023-02-12T01:43:52.857Z,6.46
2023-02-12T01:44:52.898Z,6.34
2023-02-12T01:45:53.394Z,6.46
2023-02-12T01:46:52.900Z,6.42
2023-02-12T01:47:52.817Z,6.25
2023-02-12T01:48:52.802Z,6.28
2023-02-12T01:49:52.797Z,6.45
2023-02-12T01:50:52.795Z,6.42
2023-02-12T01:51:52.773Z,6.45
2023-02-12T01:52:52.768Z,6.37
2023-02-12T01:53:52.753Z,6.43
2023-02-12T01:54:54.467Z,6.45
2023-02-12T01:55:53.112Z,6.50
2023-02-12T01:56:52.726Z,6.49
2023-02-12T01:57:52.719Z,6.55
2023-02-12T01:58:52.717Z,6.55
2023-02-12T01:59:52.687Z,6.61
2023-02-12T02:00:52.702Z,6.53
2023-02-12T02:01:52.799Z,6.43
2023-02-12T02:02:52.677Z,6.45
2023-02-12T02:03:52.654Z,6.38
2023-02-12T02:04:52.644Z,6.24
2023-02-12T02:05:52.871Z,6.27
2023-02-12T02:06:52.629Z,6.38
2023-02-12T02:07:52.613Z,6.38
2023-02-12T02:08:52.621Z,6.47
2023-02-12T02:09:52.588Z,6.43
2023-02-12T02:10:52.572Z,6.43
2023-02-12T02:11:52.561Z,6.43
2023-02-12T02:12:52.546Z,6.46
2023-02-12T02:13:52.539Z,6.37
2023-02-12T02:14:52.536Z,6.49
2023-02-12T02:15:52.578Z,6.43
2023-02-12T02:16:52.521Z,6.38
2023-02-12T02:17:52.501Z,6.50
2023-02-12T02:18:52.493Z,6.45
2023-02-12T02:19:52.481Z,6.52
2023-02-12T02:20:52.466Z,6.38
2023-02-12T02:21:52.485Z,6.43
2023-02-12T02:22:52.452Z,6.60
2023-02-12T02:23:52.435Z,6.50
2023-02-12T02:24:52.422Z,6.63
2023-02-12T02:25:52.498Z,6.70
2023-02-12T02:26:52.416Z,6.65
2023-02-12T02:27:52.386Z,6.64
2023-02-12T02:28:52.369Z,6.64
2023-02-12T02:29:52.365Z,6.60
2023-02-12T02:30:52.412Z,6.70
2023-02-12T02:31:52.449Z,6.68
2023-02-12T02:32:52.373Z,6.67
2023-02-12T02:33:52.324Z,6.70
2023-02-12T02:34:52.311Z,6.68
2023-02-12T02:35:52.295Z,6.74
2023-02-12T02:37:00.630Z,6.75
2023-02-12T02:37:53.314Z,6.70
2023-02-12T02:38:52.264Z,6.60
2023-02-12T02:39:52.257Z,6.70
2023-02-12T02:40:52.242Z,6.71
2023-02-12T02:41:52.232Z,6.74
2023-02-12T02:42:52.252Z,6.75
2023-02-12T02:43:52.250Z,6.73
2023-02-12T02:44:52.208Z,6.67
2023-02-12T02:45:52.195Z,6.73
2023-02-12T02:46:52.211Z,6.68
2023-02-12T02:47:52.167Z,6.65
2023-02-12T02:48:52.192Z,6.61
2023-02-12T02:49:52.184Z,6.61
2023-02-12T02:50:52.159Z,6.52
2023-02-12T02:51:52.153Z,6.52
2023-02-12T02:52:52.132Z,6.52
2023-02-12T02:53:52.118Z,6.64
2023-02-12T02:54:52.119Z,6.60
2023-02-12T02:55:52.211Z,6.56
2023-02-12T02:56:52.073Z,6.67
2023-02-12T02:57:52.074Z,6.68
2023-02-12T02:58:52.062Z,6.63
2023-02-12T02:59:52.048Z,6.64
2023-02-12T03:00:52.056Z,6.67
2023-02-12T03:01:52.031Z,6.60
2023-02-12T03:02:52.091Z,6.64
2023-02-12T03:03:52.007Z,6.73
2023-02-12T03:04:52.046Z,6.70
2023-02-12T03:05:51.986Z,6.81
2023-02-12T03:06:51.980Z,6.78
2023-02-12T03:07:51.985Z,6.75
2023-02-12T03:08:51.946Z,6.81
2023-02-12T03:09:51.956Z,6.81
2023-02-12T03:10:51.944Z,6.73
2023-02-12T03:11:51.939Z,6.81
2023-02-12T03:12:51.916Z,6.83
2023-02-12T03:13:51.913Z,6.86
2023-02-12T03:14:51.884Z,6.83
2023-02-12T03:15:51.881Z,6.88
2023-02-12T03:16:51.867Z,6.91
2023-02-12T03:17:51.847Z,6.91
2023-02-12T03:18:51.841Z,6.83
2023-02-12T03:19:51.855Z,6.91
2023-02-12T03:20:51.851Z,6.86
2023-02-12T03:21:51.823Z,6.89
2023-02-12T03:22:51.826Z,6.99
2023-02-12T03:23:51.823Z,7.10
2023-02-12T03:24:51.794Z,7.08
2023-02-12T03:25:51.775Z,7.13
2023-02-12T03:26:51.775Z,7.10
2023-02-12T03:27:51.746Z,7.13
2023-02-12T03:28:51.743Z,7.21
2023-02-12T03:29:51.736Z,7.21
2023-02-12T03:30:51.732Z,7.11
2023-02-12T03:31:51.754Z,7.16
2023-02-12T03:32:51.738Z,7.24
2023-02-12T03:33:51.697Z,7.16
2023-02-12T03:34:51.683Z,7.15
2023-02-12T03:35:51.668Z,7.15
2023-02-12T03:36:51.679Z,7.22
2023-02-12T03:37:51.645Z,7.15
2023-02-12T03:38:51.646Z,7.15
2023-02-12T03:39:51.633Z,7.10
2023-02-12T03:40:51.623Z,7.11
2023-02-12T03:41:51.601Z,7.10
2023-02-12T03:42:51.604Z,7.07
2023-02-12T03:43:51.586Z,7.00
2023-02-12T03:44:51.585Z,6.97
2023-02-12T03:45:51.684Z,7.03
2023-02-12T03:46:51.561Z,7.00
2023-02-12T03:47:51.547Z,7.00
2023-02-12T03:48:51.536Z,6.89
2023-02-12T03:49:51.520Z,6.99
2023-02-12T03:50:51.511Z,6.96
2023-02-12T03:51:51.507Z,6.99
2023-02-12T03:52:51.504Z,6.75
2023-02-12T03:53:51.488Z,6.82
2023-02-12T03:54:51.469Z,6.71
2023-02-12T03:55:51.463Z,6.74
2023-02-12T03:56:51.461Z,6.73
2023-02-12T03:57:51.451Z,6.74
2023-02-12T03:58:51.424Z,6.74
2023-02-12T03:59:51.421Z,6.73
2023-02-12T04:00:51.455Z,6.73
2023-02-12T04:01:51.533Z,6.71
2023-02-12T04:02:51.380Z,6.67
2023-02-12T04:03:51.365Z,6.68
2023-02-12T04:04:51.355Z,6.68
2023-02-12T04:05:51.343Z,6.67
2023-02-12T04:06:51.349Z,6.67
2023-02-12T04:07:51.369Z,6.70
2023-02-12T04:08:51.335Z,6.60
2023-02-12T04:09:51.312Z,6.71
2023-02-12T04:10:51.301Z,6.60
2023-02-12T04:11:51.310Z,6.60
2023-02-12T04:12:51.276Z,6.52
2023-02-12T04:13:51.275Z,6.55
2023-02-12T04:14:51.248Z,6.55
2023-02-12T04:15:51.241Z,6.47
2023-02-12T04:16:51.288Z,6.46
2023-02-12T04:17:51.235Z,6.46
2023-02-12T04:18:51.206Z,6.50
2023-02-12T04:19:51.201Z,6.35
2023-02-12T04:20:51.195Z,6.42
2023-02-12T04:21:51.181Z,6.42
2023-02-12T04:22:51.175Z,6.46
2023-02-12T04:23:51.166Z,6.52
2023-02-12T04:24:51.162Z,6.56
2023-02-12T04:25:51.125Z,6.57
2023-02-12T04:26:51.116Z,6.60
2023-02-12T04:27:51.119Z,6.61
2023-02-12T04:28:51.126Z,6.55
2023-02-12T04:29:51.105Z,6.55
2023-02-12T04:30:51.196Z,6.49
2023-02-12T04:31:51.230Z,6.40
2023-02-12T04:32:51.058Z,6.45
2023-02-12T04:33:51.065Z,6.45
2023-02-12T04:34:51.039Z,6.38
2023-02-12T04:35:51.031Z,6.34
2023-02-12T04:36:51.015Z,6.28
2023-02-12T04:37:51.005Z,6.21
2023-02-12T04:38:51.003Z,6.27
2023-02-12T04:39:51.001Z,6.32
2023-02-12T04:40:51.001Z,6.28
2023-02-12T04:41:50.978Z,6.32
2023-02-12T04:42:50.955Z,6.37
2023-02-12T04:43:50.950Z,6.38
2023-02-12T04:44:50.957Z,6.24
2023-02-12T04:45:50.947Z,6.38
2023-02-12T04:46:50.917Z,6.38
2023-02-12T04:47:50.911Z,6.38
2023-02-12T04:48:50.889Z,6.34
2023-02-12T04:49:50.896Z,6.32
2023-02-12T04:50:50.886Z,6.28
2023-02-12T04:51:50.871Z,6.30
2023-02-12T04:52:50.851Z,6.25
2023-02-12T04:53:50.843Z,6.27
2023-02-12T04:54:50.836Z,6.34
2023-02-12T04:55:50.850Z,6.42
2023-02-12T04:56:50.840Z,6.42
2023-02-12T04:57:50.805Z,6.57
2023-02-12T04:58:50.790Z,6.49
2023-02-12T04:59:50.774Z,6.61
2023-02-12T05:00:50.773Z,6.55
2023-02-12T05:01:50.951Z,6.60
2023-02-12T05:02:50.753Z,6.57
2023-02-12T05:03:50.752Z,6.57
2023-02-12T05:04:50.784Z,6.60
2023-02-12T05:05:50.709Z,6.57
2023-02-12T05:06:50.700Z,6.53
2023-02-12T05:07:50.698Z,6.50
2023-02-12T05:08:50.682Z,6.46
2023-02-12T05:09:50.683Z,6.40
2023-02-12T05:10:50.665Z,6.42
2023-02-12T05:11:50.664Z,6.40
2023-02-12T05:12:50.684Z,6.35
2023-02-12T05:13:50.641Z,6.46
2023-02-12T05:14:50.621Z,6.42
2023-02-12T05:15:50.669Z,6.40
2023-02-12T05:16:50.604Z,6.40
2023-02-12T05:17:50.587Z,6.32
2023-02-12T05:18:50.579Z,6.30
2023-02-12T05:19:50.573Z,6.27
2023-02-12T05:20:50.561Z,6.21
2023-02-12T05:21:50.541Z,6.19
2023-02-12T05:22:50.554Z,6.24
2023-02-12T05:23:50.535Z,6.30
2023-02-12T05:24:50.514Z,6.24
2023-02-12T05:25:50.498Z,6.19
2023-02-12T05:26:50.506Z,6.18
2023-02-12T05:27:50.491Z,6.27
2023-02-12T05:28:50.527Z,6.27
2023-02-12T05:29:50.466Z,6.28
2023-02-12T05:30:50.466Z,6.27
2023-02-12T05:31:50.581Z,6.27
2023-02-12T05:32:50.424Z,6.27
2023-02-12T05:33:50.434Z,6.34
2023-02-12T05:34:50.436Z,6.25
2023-02-12T05:35:50.404Z,6.15
2023-02-12T05:36:50.405Z,6.19
2023-02-12T05:37:50.384Z,6.18
2023-02-12T05:38:50.388Z,6.25
2023-02-12T05:39:50.389Z,6.18
2023-02-12T05:40:50.345Z,6.25
2023-02-12T05:41:50.338Z,6.27
2023-02-12T05:42:50.333Z,6.27
2023-02-12T05:43:50.311Z,6.25
2023-02-12T05:44:50.332Z,6.27
2023-02-12T05:45:50.291Z,6.25
2023-02-12T05:46:50.385Z,6.21
2023-02-12T05:47:50.268Z,6.25
2023-02-12T05:48:50.266Z,6.30
2023-02-12T05:49:50.244Z,6.28
2023-02-12T05:50:52.928Z,6.35
2023-02-12T05:51:50.246Z,6.40
2023-02-12T05:52:50.207Z,6.45
2023-02-12T05:53:50.213Z,6.35
2023-02-12T05:54:50.194Z,6.46
2023-02-12T05:55:50.185Z,6.56
2023-02-12T05:56:50.189Z,6.52
2023-02-12T05:57:50.162Z,6.55
2023-02-12T05:58:50.150Z,6.50
2023-02-12T05:59:50.149Z,6.55
2023-02-12T06:00:50.146Z,6.56
2023-02-12T06:01:50.260Z,6.56
2023-02-12T06:02:50.130Z,6.67
2023-02-12T06:03:50.131Z,6.71
2023-02-12T06:04:50.081Z,6.74
2023-02-12T06:05:50.084Z,6.61
2023-02-12T06:06:50.081Z,6.65
2023-02-12T06:07:50.053Z,6.57
2023-02-12T06:08:50.047Z,6.74
2023-02-12T06:09:50.030Z,6.71
2023-02-12T06:10:50.024Z,6.68
2023-02-12T06:11:50.122Z,6.71
2023-02-12T06:12:50.007Z,6.73
2023-02-12T06:13:49.995Z,6.74
2023-02-12T06:14:49.983Z,6.73
2023-02-12T06:15:49.992Z,6.81
2023-02-12T06:16:49.981Z,6.79
2023-02-12T06:17:49.962Z,6.73
2023-02-12T06:18:49.938Z,6.70
2023-02-12T06:19:49.930Z,6.68
2023-02-12T06:20:49.934Z,6.67
2023-02-12T06:21:49.941Z,6.55
2023-02-12T06:22:49.888Z,6.65
2023-02-12T06:23:49.896Z,6.68
2023-02-12T06:24:49.874Z,6.73
2023-02-12T06:25:49.855Z,6.81
2023-02-12T06:26:49.851Z,6.79
2023-02-12T06:27:49.844Z,6.81
2023-02-12T06:28:49.854Z,6.74
2023-02-12T06:29:49.831Z,6.78
2023-02-12T06:30:49.855Z,6.70
2023-02-12T06:31:50.013Z,6.79
2023-02-12T06:32:49.810Z,6.75
2023-02-12T06:33:49.796Z,6.73
2023-02-12T06:34:49.764Z,6.78
2023-02-12T06:35:49.759Z,6.74
2023-02-12T06:36:49.848Z,6.68
2023-02-12T06:37:49.739Z,6.74
2023-02-12T06:38:49.734Z,6.75
2023-02-12T06:39:49.715Z,6.78
2023-02-12T06:40:49.702Z,6.85
2023-02-12T06:41:49.698Z,6.83
2023-02-12T06:42:50.461Z,6.83
2023-02-12T06:43:49.688Z,6.82
2023-02-12T06:44:51.965Z,6.86
2023-02-12T06:45:49.648Z,6.86
2023-02-12T06:46:49.706Z,6.86
2023-02-12T06:47:49.640Z,6.75
2023-02-12T06:48:49.646Z,6.79
2023-02-12T06:49:49.620Z,6.88
2023-02-12T06:50:49.614Z,6.86
2023-02-12T06:51:49.610Z,6.96
2023-02-12T06:52:49.583Z,6.91
2023-02-12T06:53:49.562Z,6.91
2023-02-12T06:54:49.568Z,6.99
2023-02-12T06:55:49.561Z,6.97
2023-02-12T06:56:49.548Z,7.10
2023-02-12T06:57:49.535Z,7.04
2023-02-12T06:58:49.512Z,7.07
2023-02-12T06:59:49.510Z,7.11
2023-02-12T07:00:49.523Z,7.08
2023-02-12T07:01:49.490Z,7.15
2023-02-12T07:02:49.467Z,7.08
2023-02-12T07:03:49.555Z,6.97
2023-02-12T07:04:49.477Z,7.06
2023-02-12T07:05:49.441Z,7.10
2023-02-12T07:06:49.443Z,7.11
2023-02-12T07:07:49.422Z,7.11
2023-02-12T07:08:49.412Z,7.08
2023-02-12T07:09:49.400Z,7.13
2023-02-12T07:10:49.397Z,7.11
2023-02-12T07:11:49.388Z,7.19
2023-02-12T07:12:49.378Z,7.22
2023-02-12T07:13:49.358Z,7.25
2023-02-12T07:14:49.360Z,7.16
2023-02-12T07:15:49.326Z,7.21
2023-02-12T07:16:49.361Z,7.18
2023-02-12T07:17:49.320Z,7.19
2023-02-12T07:18:49.321Z,7.24
2023-02-12T07:19:49.300Z,7.28
2023-02-12T07:20:49.364Z,7.28
2023-02-12T07:21:49.290Z,7.31
2023-02-12T07:22:49.266Z,7.36
2023-02-12T07:23:51.302Z,7.34
2023-02-12T07:24:49.238Z,7.36
2023-02-12T07:25:49.219Z,7.36
2023-02-12T07:26:49.222Z,7.37
2023-02-12T07:27:49.214Z,7.34
2023-02-12T07:28:49.204Z,7.39
2023-02-12T07:29:49.178Z,7.33
2023-02-12T07:30:49.179Z,7.39
2023-02-12T07:31:49.274Z,7.40
2023-02-12T07:32:49.157Z,7.37
2023-02-12T07:33:49.154Z,7.39
2023-02-12T07:34:49.130Z,7.40
2023-02-12T07:35:49.128Z,7.37
2023-02-12T07:36:49.134Z,7.39
2023-02-12T07:37:49.111Z,7.44
2023-02-12T07:38:49.088Z,7.40
2023-02-12T07:39:49.086Z,7.36
2023-02-12T07:40:49.065Z,7.42
2023-02-12T07:41:49.057Z,7.42
2023-02-12T07:42:49.038Z,7.43
2023-02-12T07:43:49.047Z,7.50
2023-02-12T07:44:49.040Z,7.49
2023-02-12T07:45:49.090Z,7.43
2023-02-12T07:46:49.053Z,7.57
2023-02-12T07:47:48.992Z,7.66
2023-02-12T07:48:48.979Z,7.61
2023-02-12T07:49:49.003Z,7.61
2023-02-12T07:50:48.958Z,7.69
2023-02-12T07:51:48.988Z,7.64
2023-02-12T07:52:48.960Z,7.68
2023-02-12T07:53:48.937Z,7.74
2023-02-12T07:54:48.917Z,7.74
2023-02-12T07:55:48.914Z,7.77
2023-02-12T07:56:48.907Z,7.74
2023-02-12T07:57:48.888Z,7.73
2023-02-12T07:58:48.869Z,7.74
2023-02-12T07:59:48.862Z,7.76
2023-02-12T08:00:48.855Z,7.78
2023-02-12T08:01:48.839Z,7.77
2023-02-12T08:02:48.884Z,7.83
2023-02-12T08:03:48.815Z,7.87
2023-02-12T08:04:48.900Z,7.84
2023-02-12T08:05:48.818Z,7.91
2023-02-12T08:06:48.786Z,7.86
2023-02-12T08:07:48.770Z,7.95
2023-02-12T08:08:48.797Z,7.91
2023-02-12T08:09:48.763Z,7.95
2023-02-12T08:10:48.749Z,7.88
2023-02-12T08:11:48.736Z,7.76
2023-02-12T08:12:48.720Z,7.78
2023-02-12T08:13:48.707Z,7.76
2023-02-12T08:14:48.703Z,7.74
2023-02-12T08:15:48.701Z,7.77
2023-02-12T08:16:48.888Z,7.76
2023-02-12T08:17:48.670Z,7.68
2023-02-12T08:18:48.656Z,7.74
2023-02-12T08:19:48.653Z,7.73
2023-02-12T08:20:48.642Z,7.71
2023-02-12T08:21:48.642Z,7.76
2023-02-12T08:22:48.626Z,7.77
2023-02-12T08:23:48.622Z,7.76
2023-02-12T08:24:48.625Z,7.78
2023-02-12T08:25:48.593Z,7.84
2023-02-12T08:26:48.580Z,7.83
2023-02-12T08:27:48.568Z,7.81
2023-02-12T08:28:48.558Z,7.78
2023-02-12T08:29:48.559Z,7.77
2023-02-12T08:30:48.556Z,7.78
2023-02-12T08:31:48.662Z,7.76
2023-02-12T08:32:48.542Z,7.77
2023-02-12T08:33:48.501Z,7.80
2023-02-12T08:34:48.485Z,7.73
2023-02-12T08:35:48.486Z,7.81
2023-02-12T08:36:48.550Z,7.81
2023-02-12T08:37:48.458Z,7.91
2023-02-12T08:38:48.458Z,7.86
2023-02-12T08:39:48.440Z,7.91
2023-02-12T08:40:48.525Z,7.87
2023-02-12T08:41:48.414Z,7.95
2023-02-12T08:42:48.400Z,7.96
2023-02-12T08:43:48.405Z,7.99
2023-02-12T08:44:48.400Z,8.02
2023-02-12T08:45:48.455Z,8.02
2023-02-12T08:46:48.386Z,8.19
2023-02-12T08:47:48.354Z,8.17
2023-02-12T08:48:48.340Z,8.20
2023-02-12T08:49:48.340Z,8.32
2023-02-12T08:50:48.322Z,8.24
2023-02-12T08:51:48.306Z,8.38
2023-02-12T08:52:48.286Z,8.31
2023-02-12T08:53:48.280Z,8.28
2023-02-12T08:54:48.280Z,8.32
2023-02-12T08:55:48.254Z,8.32
2023-02-12T08:56:48.269Z,8.29
2023-02-12T08:57:48.240Z,8.28
2023-02-12T08:58:48.223Z,8.32
2023-02-12T08:59:48.226Z,8.28
2023-02-12T09:00:48.222Z,8.32
2023-02-12T09:01:48.195Z,8.38
2023-02-12T09:02:48.318Z,8.31
2023-02-12T09:03:48.170Z,8.31
2023-02-12T09:04:48.168Z,8.32
2023-02-12T09:05:57.473Z,8.38
2023-02-12T09:06:55.681Z,8.26
2023-02-12T09:07:55.662Z,8.23
2023-02-12T09:08:48.112Z,8.32
2023-02-12T09:09:48.102Z,8.21
2023-02-12T09:10:48.103Z,8.28
2023-02-12T09:11:48.097Z,8.35
2023-02-12T09:12:48.095Z,8.34
2023-02-12T09:13:48.080Z,8.34
2023-02-12T09:14:48.052Z,8.35
2023-02-12T09:15:48.044Z,8.32
2023-02-12T09:16:48.088Z,8.31
2023-02-12T09:17:48.023Z,8.28
2023-02-12T09:18:48.008Z,8.31
2023-02-12T09:19:47.997Z,8.19
2023-02-12T09:20:47.997Z,8.23
2023-02-12T09:21:48.001Z,8.31
2023-02-12T09:22:47.986Z,8.28
2023-02-12T09:23:47.965Z,8.32
2023-02-12T09:24:47.968Z,8.39
2023-02-12T09:25:47.938Z,8.37
2023-02-12T09:26:47.932Z,8.41
2023-02-12T09:27:47.928Z,8.57
2023-02-12T09:28:47.928Z,8.47
2023-02-12T09:29:47.900Z,8.57
2023-02-12T09:30:48.008Z,8.52
2023-02-12T09:31:47.975Z,8.59
2023-02-12T09:32:47.876Z,8.55
2023-02-12T09:33:51.150Z,8.59
2023-02-12T09:34:47.839Z,8.70
2023-02-12T09:35:47.841Z,8.70
2023-02-12T09:36:47.836Z,8.62
2023-02-12T09:37:47.813Z,8.50
2023-02-12T09:38:47.818Z,8.57
2023-02-12T09:39:50.860Z,8.55
2023-02-12T09:40:47.773Z,8.62
2023-02-12T09:41:47.763Z,8.59
2023-02-12T09:42:47.776Z,8.78
2023-02-12T09:43:47.741Z,8.81
2023-02-12T09:44:47.763Z,8.72
2023-02-12T09:45:50.263Z,8.75
2023-02-12T09:46:47.812Z,8.80
2023-02-12T09:47:47.719Z,8.67
2023-02-12T09:48:47.703Z,8.77
2023-02-12T09:49:47.688Z,8.78
2023-02-12T09:50:47.673Z,8.80
2023-02-12T09:51:49.773Z,8.77
2023-02-12T09:52:47.660Z,8.88
2023-02-12T09:53:47.661Z,8.86
2023-02-12T09:54:47.639Z,8.85
2023-02-12T09:55:47.632Z,8.78
2023-02-12T09:56:47.620Z,8.75
2023-02-12T09:57:47.608Z,8.80
2023-02-12T09:58:47.590Z,8.98
2023-02-12T09:59:47.606Z,9.04
2023-02-12T10:00:47.588Z,9.12
2023-02-12T10:01:47.639Z,9.08
2023-02-12T10:02:47.540Z,9.03
2023-02-12T10:03:47.546Z,9.19
2023-02-12T10:05:00.152Z,9.19
2023-02-12T10:05:48.533Z,9.14
2023-02-12T10:06:47.509Z,9.19
2023-02-12T10:07:47.492Z,9.16
2023-02-12T10:08:47.502Z,9.26
2023-02-12T10:09:47.491Z,9.24
2023-02-12T10:10:47.482Z,9.27
2023-02-12T10:11:47.469Z,9.34
2023-02-12T10:12:47.447Z,9.32
2023-02-12T10:13:47.434Z,9.32
2023-02-12T10:14:47.436Z,9.26
2023-02-12T10:15:47.460Z,9.18
2023-02-12T10:16:47.427Z,9.18
2023-02-12T10:17:47.400Z,9.30
2023-02-12T10:18:47.383Z,9.32
2023-02-12T10:19:47.376Z,9.14
2023-02-12T10:20:47.355Z,9.06
2023-02-12T10:21:47.362Z,9.09
2023-02-12T10:22:56.504Z,8.98
2023-02-12T10:23:48.340Z,8.98
2023-02-12T10:24:47.322Z,8.92
2023-02-12T10:25:47.321Z,8.92
2023-02-12T10:26:47.306Z,8.98
2023-02-12T10:27:47.295Z,8.88
2023-02-12T10:28:47.278Z,8.88
2023-02-12T10:29:47.297Z,8.80
2023-02-12T10:30:47.294Z,8.77
2023-02-12T10:31:47.396Z,8.75
2023-02-12T10:32:47.261Z,8.72
2023-02-12T10:33:47.236Z,8.74
2023-02-12T10:34:47.206Z,8.75
2023-02-12T10:35:47.201Z,8.68
2023-02-12T10:36:47.210Z,8.81
2023-02-12T10:37:47.189Z,8.81
2023-02-12T10:38:47.331Z,8.74
2023-02-12T10:39:47.162Z,8.60
2023-02-12T10:40:47.190Z,8.68
2023-02-12T10:41:47.140Z,8.62
2023-02-12T10:42:47.131Z,8.67
2023-02-12T10:43:47.108Z,8.71
2023-02-12T10:44:47.107Z,8.59
2023-02-12T10:45:47.096Z,8.53
2023-02-12T10:46:47.105Z,8.56
2023-02-12T10:47:47.056Z,8.55
2023-02-12T10:48:47.066Z,8.60
2023-02-12T10:49:47.048Z,8.56
2023-02-12T10:50:47.044Z,8.57
2023-02-12T10:51:47.027Z,8.59
2023-02-12T10:52:47.002Z,8.57
2023-02-12T10:53:46.996Z,8.49
2023-02-12T10:54:46.989Z,8.59
2023-02-12T10:55:46.999Z,8.56
2023-02-12T10:56:46.965Z,8.65
2023-02-12T10:57:46.957Z,8.52
2023-02-12T10:58:46.943Z,8.60
2023-02-12T10:59:46.946Z,8.57
2023-02-12T11:00:46.930Z,8.65
2023-02-12T11:01:47.007Z,8.70
2023-02-12T11:02:46.914Z,8.85
2023-02-12T11:03:46.904Z,8.74
2023-02-12T11:04:46.980Z,8.62
2023-02-12T11:05:46.878Z,8.70
2023-02-12T11:06:46.876Z,8.75
2023-02-12T11:07:46.878Z,8.83
2023-02-12T11:08:46.836Z,8.88
2023-02-12T11:09:46.844Z,8.93
2023-02-12T11:10:46.824Z,8.99
2023-02-12T11:11:48.059Z,8.99
2023-02-12T11:12:46.805Z,8.95
2023-02-12T11:13:46.782Z,8.95
2023-02-12T11:14:46.787Z,8.95
2023-02-12T11:15:46.809Z,8.99
2023-02-12T11:16:46.753Z,9.06
2023-02-12T11:17:46.741Z,9.03
2023-02-12T11:18:46.716Z,9.04
2023-02-12T11:19:46.735Z,9.03
2023-02-12T11:20:46.738Z,8.99
2023-02-12T11:21:46.699Z,8.99
2023-02-12T11:22:46.681Z,8.98
2023-02-12T11:23:46.681Z,8.93
2023-02-12T11:24:46.670Z,8.98
2023-02-12T11:25:46.648Z,9.03
2023-02-12T11:26:46.641Z,9.01
2023-02-12T11:27:46.623Z,9.01
2023-02-12T11:28:46.774Z,9.06
2023-02-12T11:29:48.059Z,8.96
2023-02-12T11:30:46.613Z,8.98
2023-02-12T11:31:46.715Z,9.03
2023-02-12T11:32:46.590Z,8.95
2023-02-12T11:33:46.585Z,8.96
2023-02-12T11:34:46.582Z,9.11
2023-02-12T11:35:46.545Z,9.08
2023-02-12T11:36:46.548Z,9.11
2023-02-12T11:37:46.528Z,9.14
2023-02-12T11:38:46.526Z,9.03
2023-02-12T11:39:46.515Z,9.11
2023-02-12T11:40:46.497Z,9.06
2023-02-12T11:41:46.479Z,9.08
2023-02-12T11:42:46.487Z,9.08
2023-02-12T11:43:46.455Z,9.11
2023-02-12T11:44:46.446Z,9.09
2023-02-12T11:45:46.440Z,9.14
2023-02-12T11:46:46.494Z,9.18
2023-02-12T11:47:46.424Z,9.30
2023-02-12T11:48:46.415Z,9.36
2023-02-12T11:49:46.395Z,9.33
2023-02-12T11:50:46.385Z,9.37
2023-02-12T11:51:46.369Z,9.40
2023-02-12T11:52:46.412Z,9.37
2023-02-12T11:53:46.390Z,9.50
2023-02-12T11:54:46.340Z,9.69
2023-02-12T11:55:46.327Z,9.81
2023-02-12T11:56:46.333Z,9.69
2023-02-12T11:57:46.322Z,9.67
2023-02-12T11:58:46.318Z,9.60
2023-02-12T11:59:46.285Z,9.78
2023-02-12T12:00:46.272Z,9.78
2023-02-12T12:01:46.371Z,9.91
2023-02-12T12:02:46.315Z,9.98
2023-02-12T12:03:47.165Z,10.18
2023-02-12T12:04:46.235Z,10.17
2023-02-12T12:05:46.226Z,10.20
2023-02-12T12:06:46.208Z,10.16
2023-02-12T12:07:46.217Z,10.26
2023-02-12T12:08:46.207Z,9.93
2023-02-12T12:09:46.195Z,9.69
2023-02-12T12:10:46.492Z,9.60
2023-02-12T12:11:46.157Z,9.51
2023-02-12T12:12:46.170Z,9.47
2023-02-12T12:13:46.152Z,9.66
2023-02-12T12:14:46.134Z,9.80
2023-02-12T12:15:46.126Z,9.83
2023-02-12T12:16:46.131Z,10.02
2023-02-12T12:17:46.113Z,10.14
2023-02-12T12:18:46.094Z,10.12
2023-02-12T12:19:46.086Z,10.16
2023-02-12T12:20:46.066Z,10.24
2023-02-12T12:21:46.062Z,10.24
2023-02-12T12:22:46.056Z,10.31
2023-02-12T12:23:46.069Z,10.23
2023-02-12T12:24:46.041Z,10.24
2023-02-12T12:25:46.008Z,10.16
2023-02-12T12:26:45.996Z,10.21
2023-02-12T12:27:46.008Z,10.16
2023-02-12T12:28:45.995Z,10.24
2023-02-12T12:29:45.985Z,10.12
2023-02-12T12:30:45.969Z,10.17
2023-02-12T12:31:46.156Z,10.17
2023-02-12T12:32:45.938Z,10.10
2023-02-12T12:33:45.940Z,10.17
2023-02-12T12:34:45.927Z,10.28
2023-02-12T12:35:45.899Z,10.24
2023-02-12T12:36:45.888Z,10.21
2023-02-12T12:37:45.890Z,10.21
2023-02-12T12:38:45.874Z,10.28
2023-02-12T12:39:45.855Z,10.34
2023-02-12T12:40:45.874Z,10.42
2023-02-12T12:41:45.834Z,10.43
2023-02-12T12:42:45.832Z,10.39
2023-02-12T12:43:45.813Z,10.31
2023-02-12T12:44:45.808Z,10.30
2023-02-12T12:45:45.841Z,10.24
2023-02-12T12:46:45.780Z,10.27
2023-02-12T12:47:45.771Z,10.34
2023-02-12T12:48:45.768Z,10.27
2023-02-12T12:49:45.752Z,10.20
2023-02-12T12:50:45.743Z,10.35
2023-02-12T12:51:45.743Z,10.46
2023-02-12T12:52:45.713Z,10.43
2023-02-12T12:53:45.720Z,10.34
2023-02-12T12:54:45.706Z,10.34
2023-02-12T12:55:45.692Z,10.30
2023-02-12T12:56:45.698Z,10.31
2023-02-12T12:57:45.660Z,10.35
2023-02-12T12:58:45.652Z,10.39
2023-02-12T12:59:45.626Z,10.42
2023-02-12T13:00:45.712Z,10.48
2023-02-12T13:01:45.607Z,10.42
2023-02-12T13:02:45.710Z,10.41
2023-02-12T13:03:45.597Z,10.39
2023-02-12T13:04:45.585Z,10.42
2023-02-12T13:05:47.046Z,10.46
2023-02-12T13:06:45.573Z,10.41
2023-02-12T13:07:45.554Z,10.34
2023-02-12T13:08:45.544Z,10.38
2023-02-12T13:09:45.531Z,10.54
2023-02-12T13:10:45.516Z,10.62
2023-02-12T13:11:45.529Z,10.45
2023-02-12T13:12:45.517Z,10.39
2023-02-12T13:13:45.495Z,10.43
2023-02-12T13:14:45.489Z,10.39
2023-02-12T13:15:45.474Z,10.42
2023-02-12T13:16:45.566Z,10.43